Ana Sayfa
METAR-TAF:

METAR-TAF

Havaalanları :

Alva Regional Airport

Alva, Oklahoma, Amerika Birleşik Devletleri

Enlem: 36-46-23N, Boylam: 098-40-12W, yükseklik: 449 m

Güncel hava durumu gözlemi

Rapor saat 10:35 UTC de 15 dakika önce yapıldı.
Rüzgar güney/güneybatıdan 14 kt ve 21 kt'a kadar ani rüzgarlar
Sıcaklık 6°C
Nem 70%
Basınç 1019 hPa
Görüş mesafesi: 16.1 km
4400 ft yükseklikte parçalı çok bulutlu
5000 ft yükseklikte parçalı çok bulutlu

METAR: KAVK 121035Z AUTO 21014G21KT 10SM BKN044 BKN050 06/01 A3010 RMK AO2

Saat: 04:50 (10:50 UTC)


TAF: eksik

4.000'den fazla havaalanı için hava durumu gözlemleri ve tahminleri (METAR ve TAF raporları).

Kullanılabilir istasyonlar harita üzerinde sarı ve kırmızı noktalarla gösterilir.

İstasyonun adını görmek için fareyi noktanın üzerinde gezdirin.

Sonrasında hava gözlem ve tahminlerini görmek için tıklayın.

Haritayı değiştirmek için: yaklaştırmak için siyah artı işaretli yeşil düğmeye ve uzaklaştırmak için de eksi işaretli düğmeye hızla tıklayın; bitişik haritalar için yeşil okları kullanın.


METAR-TAF: